TAF Flughafenprognosen

Nürnberg TAF, ausgegeben Mo 17.12. 06:51

TAF COR EDDN 170551Z 1706/1806 14004KT 4000 BR OVC007 TEMPO 1706/1708 2000 BR OVC003 BECMG 1709/1711 9999 BKN020 BECMG 1718/1720 20005KT TEMPO 1718/1723 4500 -RASN BKN010
GültigkeitVonBisWind in Beaufort
(Knoten)
Wolken
(Meter über Grund)
Sichtweite
(Meter)
Wettererscheinung
Grundvorhersage Mo 17.12. 07:00 Di 18.12. 07:00 SO 2 (4) Bedeckt (210) 4000 Nebeldunst
Vorübergehend Mo 17.12. 07:00 Mo 17.12. 09:00   Bedeckt (91) 2000 Nebeldunst
Übergang zu Mo 17.12. 10:00 Mo 17.12. 12:00   Stark bewölkt (610) >= 10000  
Übergang zu Mo 17.12. 19:00 Mo 17.12. 21:00 SSW 2 (5)      
Vorübergehend Mo 17.12. 19:00 Di 18.12. 00:00   Stark bewölkt (300) 4500 Regen/Schneefall (schwach)

 

Hof TAF, ausgegeben Mo 17.12. 06:42

TAF EDQM 170542Z 1706/1715 21006KT 3000 BR OVC002 TEMPO 1706/1709 1500 BR PROB30 TEMPO 1706/1709 -FZDZ BKN001 BECMG 1709/1711 5000 TEMPO 1712/1715 BKN005
GültigkeitVonBisWind in Beaufort
(Knoten)
Wolken
(Meter über Grund)
Sichtweite
(Meter)
Wettererscheinung
Grundvorhersage Mo 17.12. 07:00 Mo 17.12. 16:00 SSW 2 (6) Bedeckt (61) 3000 Nebeldunst
Vorübergehend Mo 17.12. 07:00 Mo 17.12. 10:00     1500 Nebeldunst
Vorübergehend
(Wahrscheinlichkeit 30 %)
Mo 17.12. 07:00 Mo 17.12. 10:00   Stark bewölkt (30)   Nieselregen (gefrierend, schwach)
Übergang zu Mo 17.12. 10:00 Mo 17.12. 12:00     5000  
Vorübergehend Mo 17.12. 13:00 Mo 17.12. 16:00   Stark bewölkt (150)    

 

Erfurt-Bindersleben TAF, ausgegeben Mo 17.12. 06:00

TAF EDDE 170500Z 1706/1806 VRB02KT 9999 BKN025 PROB30 TEMPO 1706/1708 BKN009 BECMG 1708/1711 22007KT
GültigkeitVonBisWind in Beaufort
(Knoten)
Wolken
(Meter über Grund)
Sichtweite
(Meter)
Wettererscheinung
Grundvorhersage Mo 17.12. 07:00 Di 18.12. 07:00 Uml 1 (2) Stark bewölkt (760) >= 10000  
Vorübergehend
(Wahrscheinlichkeit 30 %)
Mo 17.12. 07:00 Mo 17.12. 09:00   Stark bewölkt (270)    
Übergang zu Mo 17.12. 09:00 Mo 17.12. 12:00 SW 3 (7)      

 

Augsburg TAF, ausgegeben Mo 17.12. 06:52

TAF EDMA 170552Z 1706/1715 VRB03KT 0500 FZFG VV001 BECMG 1707/1709 1500 BR BKN002 BECMG 1709/1711 6000 BKN030 BECMG 1713/1715 BKN012
GültigkeitVonBisWind in Beaufort
(Knoten)
Wolken
(Meter über Grund)
Sichtweite
(Meter)
Wettererscheinung
Grundvorhersage Mo 17.12. 07:00 Mo 17.12. 16:00 Uml 2 (3)   500 Nebel
Übergang zu Mo 17.12. 08:00 Mo 17.12. 10:00   Stark bewölkt (61) 1500 Nebeldunst
Übergang zu Mo 17.12. 10:00 Mo 17.12. 12:00   Stark bewölkt (910) 6000  
Übergang zu Mo 17.12. 14:00 Mo 17.12. 16:00   Stark bewölkt (370)    

 

Frankfurt TAF, ausgegeben Mo 17.12. 06:00

TAF EDDF 170500Z 1706/1812 VRB03KT 2000 BR BKN003 PROB30 TEMPO 1706/1709 0800 FG BKN001 BECMG 1706/1709 4000 BR BKN005 BECMG 1709/1712 20007KT TEMPO 1709/1714 6000 SCT006 BECMG 1714/1717 8000 FEW006 SCT014 BKN030 BECMG 1806/1809 SCT030
GültigkeitVonBisWind in Beaufort
(Knoten)
Wolken
(Meter über Grund)
Sichtweite
(Meter)
Wettererscheinung
Grundvorhersage Mo 17.12. 07:00 Di 18.12. 13:00 Uml 2 (3) Stark bewölkt (91) 2000 Nebeldunst
Vorübergehend
(Wahrscheinlichkeit 30 %)
Mo 17.12. 07:00 Mo 17.12. 10:00   Stark bewölkt (30) 800 Nebel
Übergang zu Mo 17.12. 07:00 Mo 17.12. 10:00   Stark bewölkt (150) 4000 Nebeldunst
Übergang zu Mo 17.12. 10:00 Mo 17.12. 13:00 SSW 3 (7)      
Vorübergehend Mo 17.12. 10:00 Mo 17.12. 15:00   Wolkig (180) 6000  
Übergang zu Mo 17.12. 15:00 Mo 17.12. 18:00   Stark bewölkt (910)
Wolkig (430)
Leicht bewölkt (180)
8000  
Übergang zu Di 18.12. 07:00 Di 18.12. 10:00   Wolkig (910)    

 

Stuttgart TAF, ausgegeben Mo 17.12. 06:00

TAF EDDS 170500Z 1706/1806 VRB03KT 9999 FEW001 SCT035 TEMPO 1706/1709 0500 FZFG BKN001 TEMPO 1709/1712 3000 BR TEMPO 1712/1716 21005KT TEMPO 1720/1806 1500 BCFG
GültigkeitVonBisWind in Beaufort
(Knoten)
Wolken
(Meter über Grund)
Sichtweite
(Meter)
Wettererscheinung
Grundvorhersage Mo 17.12. 07:00 Di 18.12. 07:00 Uml 2 (3) Wolkig (1100)
Leicht bewölkt (30)
>= 10000  
Vorübergehend Mo 17.12. 07:00 Mo 17.12. 10:00   Stark bewölkt (30) 500 Nebel
Vorübergehend Mo 17.12. 10:00 Mo 17.12. 13:00     3000 Nebeldunst
Vorübergehend Mo 17.12. 13:00 Mo 17.12. 17:00 SSW 2 (5)      
Vorübergehend Mo 17.12. 21:00 Di 18.12. 07:00     1500 Nebel-Bänke

 

München TAF, ausgegeben Mo 17.12. 06:00

TAF EDDM 170500Z 1706/1812 VRB03KT 3500 BR OVC005 TEMPO 1706/1709 2000 BR OVC003 BECMG 1709/1712 24005KT 7000 BKN012 PROB30 TEMPO 1712/1718 BKN030 TEMPO 1718/1723 3000 -SNRA BKN007 BECMG 1719/1721 VRB03KT BECMG 1800/1803 BKN020 BECMG 1809/1811 07005KT
GültigkeitVonBisWind in Beaufort
(Knoten)
Wolken
(Meter über Grund)
Sichtweite
(Meter)
Wettererscheinung
Grundvorhersage Mo 17.12. 07:00 Di 18.12. 13:00 Uml 2 (3) Bedeckt (150) 3500 Nebeldunst
Vorübergehend Mo 17.12. 07:00 Mo 17.12. 10:00   Bedeckt (91) 2000 Nebeldunst
Übergang zu Mo 17.12. 10:00 Mo 17.12. 13:00 WSW 2 (5) Stark bewölkt (370) 7000  
Vorübergehend
(Wahrscheinlichkeit 30 %)
Mo 17.12. 13:00 Mo 17.12. 19:00   Stark bewölkt (910)    
Vorübergehend Mo 17.12. 19:00 Di 18.12. 00:00   Stark bewölkt (210) 3000 Schnee/Regen (schwach)
Übergang zu Mo 17.12. 20:00 Mo 17.12. 22:00 Uml 2 (3)      
Übergang zu Di 18.12. 01:00 Di 18.12. 04:00   Stark bewölkt (610)    
Übergang zu Di 18.12. 10:00 Di 18.12. 12:00 ONO 2 (5)